createdAt,value
2023-05-22T00:02:06.509Z,15.57
2023-05-22T00:04:35.964Z,15.55
2023-05-22T00:07:04.648Z,15.57
2023-05-22T00:09:32.705Z,15.34
2023-05-22T00:12:01.142Z,15.38
2023-05-22T00:14:29.116Z,15.29
2023-05-22T00:16:58.566Z,15.26
2023-05-22T00:19:27.143Z,15.05
2023-05-22T00:21:56.759Z,15.10
2023-05-22T00:24:24.884Z,15.12
2023-05-22T00:26:53.021Z,14.96
2023-05-22T00:29:21.120Z,14.90
2023-05-22T00:31:49.269Z,14.82
2023-05-22T00:34:17.445Z,14.82
2023-05-22T00:36:45.675Z,14.78
2023-05-22T00:39:15.226Z,14.83
2023-05-22T00:41:43.368Z,14.72
2023-05-22T00:44:12.001Z,14.44
2023-05-22T00:46:40.818Z,14.58
2023-05-22T00:49:08.978Z,14.43
2023-05-22T00:51:37.180Z,14.33
2023-05-22T00:54:06.201Z,14.31
2023-05-22T00:56:36.065Z,14.24
2023-05-22T00:59:04.400Z,14.24
2023-05-22T01:01:38.737Z,14.21
2023-05-22T01:04:10.271Z,14.17
2023-05-22T01:06:39.073Z,14.09
2023-05-22T01:09:07.247Z,14.10
2023-05-22T01:11:44.096Z,14.03
2023-05-22T01:14:20.392Z,13.98
2023-05-22T01:16:59.818Z,13.88
2023-05-22T01:19:50.732Z,13.93
2023-05-22T01:22:32.299Z,13.85
2023-05-22T01:25:21.400Z,13.81
2023-05-22T01:28:21.810Z,13.77
2023-05-22T01:31:00.460Z,13.71
2023-05-22T01:33:29.673Z,13.69
2023-05-22T01:36:01.602Z,13.65
2023-05-22T01:38:31.819Z,13.62
2023-05-22T01:41:00.137Z,13.59
2023-05-22T01:43:28.812Z,13.56
2023-05-22T01:45:58.323Z,13.55
2023-05-22T01:48:26.498Z,13.58
2023-05-22T01:50:56.220Z,13.56
2023-05-22T01:53:30.082Z,13.58
2023-05-22T01:56:05.473Z,13.57
2023-05-22T01:58:40.811Z,13.53
2023-05-22T02:01:13.432Z,13.50
2023-05-22T02:03:42.967Z,13.42
2023-05-22T02:06:15.593Z,13.39
2023-05-22T02:08:44.484Z,13.33
2023-05-22T02:11:15.284Z,13.29
2023-05-22T02:13:43.926Z,13.13
2023-05-22T02:16:14.189Z,13.14
2023-05-22T02:18:43.763Z,13.10
2023-05-22T02:21:12.315Z,13.11
2023-05-22T02:23:40.798Z,13.01
2023-05-22T02:26:09.362Z,13.01
2023-05-22T02:28:38.198Z,12.97
2023-05-22T02:31:07.025Z,12.93
2023-05-22T02:33:36.929Z,12.88
2023-05-22T02:36:05.294Z,12.88
2023-05-22T02:38:33.473Z,12.84
2023-05-22T02:41:02.059Z,12.81
2023-05-22T02:43:30.132Z,12.82
2023-05-22T02:45:58.307Z,12.80
2023-05-22T02:48:26.464Z,12.80
2023-05-22T02:50:56.011Z,12.77
2023-05-22T02:53:24.061Z,12.74
2023-05-22T02:55:53.309Z,12.68
2023-05-22T02:58:23.302Z,12.68
2023-05-22T03:00:53.098Z,12.65
2023-05-22T03:03:21.426Z,12.39
2023-05-22T03:05:50.136Z,12.55
2023-05-22T03:08:20.301Z,12.58
2023-05-22T03:10:48.546Z,12.53
2023-05-22T03:13:16.800Z,12.57
2023-05-22T03:15:45.056Z,12.53
2023-05-22T03:18:13.236Z,12.54
2023-05-22T03:20:42.139Z,12.53
2023-05-22T03:23:11.532Z,12.52
2023-05-22T03:25:41.210Z,12.46
2023-05-22T03:28:09.250Z,12.41
2023-05-22T03:30:37.895Z,12.45
2023-05-22T03:33:06.303Z,12.40
2023-05-22T03:35:34.513Z,12.41
2023-05-22T03:38:02.585Z,12.32
2023-05-22T03:40:30.909Z,12.24
2023-05-22T03:43:00.425Z,12.24
2023-05-22T03:45:28.755Z,12.25
2023-05-22T03:47:57.242Z,12.25
2023-05-22T03:50:25.513Z,12.25
2023-05-22T03:52:53.864Z,12.27
2023-05-22T03:55:22.115Z,12.25
2023-05-22T03:57:50.279Z,12.38
2023-05-22T04:00:20.904Z,12.34
2023-05-22T04:02:50.604Z,12.34
2023-05-22T04:05:19.426Z,12.35
2023-05-22T04:07:47.522Z,12.39
2023-05-22T04:10:15.695Z,12.45
2023-05-22T04:12:44.474Z,12.51
2023-05-22T04:15:12.818Z,12.54
2023-05-22T04:17:42.928Z,12.57
2023-05-22T04:20:12.408Z,12.44
2023-05-22T04:22:41.432Z,12.39
2023-05-22T04:25:10.607Z,12.61
2023-05-22T04:27:38.929Z,12.45
2023-05-22T04:30:08.994Z,12.70
2023-05-22T04:32:38.401Z,12.83
2023-05-22T04:35:10.194Z,12.79
2023-05-22T04:37:38.560Z,12.99
2023-05-22T04:40:08.618Z,13.07
2023-05-22T04:42:37.443Z,13.09
2023-05-22T04:45:06.270Z,13.21
2023-05-22T04:47:34.512Z,13.30
2023-05-22T04:50:04.025Z,13.40
2023-05-22T04:52:33.626Z,13.49
2023-05-22T04:55:03.840Z,13.55
2023-05-22T04:57:33.460Z,13.71
2023-05-22T05:00:02.057Z,13.82
2023-05-22T05:02:30.490Z,13.93
2023-05-22T05:04:58.741Z,14.03
2023-05-22T05:07:27.977Z,14.09
2023-05-22T05:09:58.582Z,14.23
2023-05-22T05:12:27.465Z,14.15
2023-05-22T05:14:55.724Z,14.31
2023-05-22T05:17:24.063Z,14.43
2023-05-22T05:19:52.417Z,14.53
2023-05-22T05:22:20.687Z,14.64
2023-05-22T05:24:49.296Z,14.72
2023-05-22T05:27:19.237Z,14.78
2023-05-22T05:29:47.497Z,14.88
2023-05-22T05:32:15.929Z,14.98
2023-05-22T05:34:44.256Z,15.12
2023-05-22T05:37:12.710Z,15.16
2023-05-22T05:39:41.005Z,15.31
2023-05-22T05:42:09.334Z,15.49
2023-05-22T05:44:39.516Z,15.56
2023-05-22T05:47:08.144Z,15.66
2023-05-22T05:49:36.748Z,15.82
2023-05-22T05:52:05.740Z,15.98
2023-05-22T05:54:34.114Z,16.19
2023-05-22T05:57:02.311Z,16.32
2023-05-22T05:59:32.200Z,16.48
2023-05-22T06:02:02.331Z,16.62
2023-05-22T06:04:30.462Z,16.65
2023-05-22T06:06:58.583Z,16.81
2023-05-22T06:09:26.922Z,16.79
2023-05-22T06:11:55.229Z,16.97
2023-05-22T06:14:23.807Z,17.04
2023-05-22T06:16:52.223Z,17.17
2023-05-22T06:19:22.077Z,17.31
2023-05-22T06:21:52.139Z,17.35
2023-05-22T06:24:20.449Z,17.44
2023-05-22T06:26:48.622Z,17.58
2023-05-22T06:29:17.070Z,17.46
2023-05-22T06:31:45.325Z,17.57
2023-05-22T06:34:13.698Z,17.65
2023-05-22T06:36:43.821Z,17.84
2023-05-22T06:39:12.171Z,17.94
2023-05-22T06:41:40.754Z,18.07
2023-05-22T06:44:08.846Z,18.21
2023-05-22T06:46:37.289Z,18.29
2023-05-22T06:49:05.418Z,18.40
2023-05-22T06:51:34.374Z,18.50
2023-05-22T06:54:07.122Z,18.67
2023-05-22T06:56:35.275Z,18.80
2023-05-22T06:59:06.037Z,18.85
2023-05-22T07:01:34.643Z,18.96
2023-05-22T07:04:05.208Z,19.12
2023-05-22T07:06:39.251Z,19.13
2023-05-22T07:09:14.938Z,19.46
2023-05-22T07:11:44.153Z,19.51
2023-05-22T07:14:13.293Z,19.78
2023-05-22T07:16:42.626Z,20.02
2023-05-22T07:19:12.166Z,20.08
2023-05-22T07:21:40.412Z,20.35
2023-05-22T07:24:10.530Z,20.32
2023-05-22T07:26:39.310Z,20.45
2023-05-22T07:29:09.087Z,20.41
2023-05-22T07:31:39.380Z,20.72
2023-05-22T07:34:07.871Z,20.75
2023-05-22T07:36:36.285Z,20.84
2023-05-22T07:39:05.489Z,20.86
2023-05-22T07:41:35.203Z,20.79
2023-05-22T07:44:03.776Z,21.04
2023-05-22T07:46:32.013Z,21.20
2023-05-22T07:49:00.241Z,21.33
2023-05-22T07:51:29.186Z,21.36
2023-05-22T07:56:26.193Z,21.17
2023-05-22T07:58:55.826Z,21.44
2023-05-22T08:01:24.391Z,21.60
2023-05-22T08:03:53.061Z,21.76
2023-05-22T08:06:23.278Z,21.83
2023-05-22T08:08:53.885Z,21.74
2023-05-22T08:11:22.582Z,21.80
2023-05-22T08:13:51.017Z,21.68
2023-05-22T08:16:20.740Z,21.72
2023-05-22T08:18:49.343Z,21.93
2023-05-22T08:21:17.920Z,21.96
2023-05-22T08:23:46.989Z,21.86
2023-05-22T08:26:16.661Z,22.11
2023-05-22T08:28:45.039Z,21.95
2023-05-22T08:31:13.502Z,22.12
2023-05-22T08:33:43.421Z,22.26
2023-05-22T08:36:11.833Z,22.45
2023-05-22T08:38:40.549Z,22.14
2023-05-22T08:41:10.216Z,22.35
2023-05-22T08:43:38.666Z,22.55
2023-05-22T08:46:08.945Z,22.62
2023-05-22T08:48:38.497Z,22.87
2023-05-22T08:51:09.774Z,22.90
2023-05-22T08:53:39.135Z,22.90
2023-05-22T08:56:09.710Z,22.91
2023-05-22T08:58:38.898Z,22.82
2023-05-22T09:01:07.713Z,22.95
2023-05-22T09:03:38.240Z,23.05
2023-05-22T09:06:10.525Z,22.99
2023-05-22T09:08:40.917Z,23.07
2023-05-22T09:11:09.207Z,22.82
2023-05-22T09:13:40.743Z,23.03
2023-05-22T09:16:15.383Z,23.19
2023-05-22T09:18:44.049Z,23.28
2023-05-22T09:21:28.708Z,23.28
2023-05-22T09:24:02.208Z,23.47
2023-05-22T09:26:33.199Z,23.44
2023-05-22T09:29:02.068Z,23.48
2023-05-22T09:31:31.039Z,23.60
2023-05-22T09:34:00.681Z,23.75
2023-05-22T09:36:37.482Z,23.63
2023-05-22T09:39:07.491Z,23.63
2023-05-22T09:41:37.858Z,23.87
2023-05-22T09:44:14.185Z,23.85
2023-05-22T09:46:43.571Z,23.86
2023-05-22T09:49:16.066Z,23.85
2023-05-22T09:51:48.498Z,23.99
2023-05-22T09:54:20.131Z,24.03
2023-05-22T09:56:50.723Z,24.33
2023-05-22T09:59:23.859Z,24.25
2023-05-22T10:01:54.488Z,24.35
2023-05-22T10:04:24.694Z,24.51
2023-05-22T10:06:59.143Z,24.29
2023-05-22T10:09:34.417Z,24.31
2023-05-22T10:12:07.687Z,24.59
2023-05-22T10:14:37.796Z,24.73
2023-05-22T10:17:07.618Z,24.78
2023-05-22T10:19:39.737Z,24.72
2023-05-22T10:22:15.069Z,24.89
2023-05-22T10:24:44.128Z,24.83
2023-05-22T10:27:12.740Z,24.83
2023-05-22T10:29:49.094Z,24.84
2023-05-22T10:32:24.988Z,24.59
2023-05-22T10:35:00.966Z,24.93
2023-05-22T10:37:43.435Z,24.58
2023-05-22T10:40:15.190Z,24.53
2023-05-22T10:42:45.242Z,24.84
2023-05-22T10:45:15.236Z,24.87
2023-05-22T10:47:45.190Z,24.97
2023-05-22T10:50:14.130Z,25.13
2023-05-22T10:52:44.282Z,25.16
2023-05-22T10:55:13.240Z,25.30
2023-05-22T10:57:42.043Z,25.42
2023-05-22T11:00:18.933Z,25.43
2023-05-22T11:02:48.206Z,25.42
2023-05-22T11:05:37.692Z,25.63
2023-05-22T11:08:29.065Z,25.63
2023-05-22T11:10:59.354Z,25.66
2023-05-22T11:13:29.484Z,25.81
2023-05-22T11:15:58.645Z,25.76
2023-05-22T11:18:30.826Z,25.45
2023-05-22T11:21:02.190Z,25.79
2023-05-22T11:23:37.613Z,25.91
2023-05-22T11:26:25.585Z,25.96
2023-05-22T11:28:57.706Z,25.70
2023-05-22T11:31:27.324Z,25.93
2023-05-22T11:33:57.971Z,26.07
2023-05-22T11:36:29.133Z,26.11
2023-05-22T11:39:01.320Z,25.94
2023-05-22T11:41:34.760Z,26.04
2023-05-22T11:44:04.812Z,25.92
2023-05-22T11:46:34.549Z,25.86
2023-05-22T11:49:04.864Z,25.98
2023-05-22T11:51:33.453Z,26.24
2023-05-22T11:54:04.277Z,26.31
2023-05-22T11:56:33.545Z,26.16
2023-05-22T11:59:04.601Z,26.10
2023-05-22T12:01:34.681Z,26.43
2023-05-22T12:04:04.076Z,26.66
2023-05-22T12:06:34.029Z,26.13
2023-05-22T12:09:04.331Z,26.17
2023-05-22T12:11:36.560Z,26.26
2023-05-22T12:14:06.279Z,26.23
2023-05-22T12:16:37.214Z,26.21
2023-05-22T12:19:10.016Z,26.12
2023-05-22T12:21:41.164Z,26.35
2023-05-22T12:24:13.010Z,26.39
2023-05-22T12:26:42.236Z,26.50
2023-05-22T12:29:11.119Z,26.57
2023-05-22T12:31:39.710Z,26.70
2023-05-22T12:34:09.230Z,26.47
2023-05-22T12:36:40.591Z,26.13
2023-05-22T12:39:11.693Z,26.46
2023-05-22T12:41:40.783Z,26.69
2023-05-22T12:44:10.735Z,26.73
2023-05-22T12:46:40.283Z,26.71
2023-05-22T12:49:09.549Z,26.68
2023-05-22T12:51:38.178Z,26.95
2023-05-22T12:54:07.633Z,26.95
2023-05-22T12:56:37.735Z,26.73
2023-05-22T12:59:08.597Z,27.11
2023-05-22T13:01:37.150Z,27.34
2023-05-22T13:04:08.570Z,26.75
2023-05-22T13:06:36.896Z,26.08
2023-05-22T13:09:05.578Z,26.35
2023-05-22T13:11:34.027Z,25.94
2023-05-22T13:14:04.464Z,26.04
2023-05-22T13:16:32.782Z,25.99
2023-05-22T13:19:03.614Z,25.83
2023-05-22T13:21:32.558Z,26.22
2023-05-22T13:24:01.415Z,25.85
2023-05-22T13:26:30.016Z,25.84
2023-05-22T13:28:58.898Z,26.34
2023-05-22T13:31:29.258Z,26.76
2023-05-22T13:33:57.935Z,26.50
2023-05-22T13:36:26.560Z,26.93
2023-05-22T13:38:54.924Z,26.91
2023-05-22T13:41:23.380Z,26.65
2023-05-22T13:43:51.897Z,25.88
2023-05-22T13:46:21.485Z,25.87
2023-05-22T13:48:51.533Z,25.99
2023-05-22T13:51:20.245Z,25.69
2023-05-22T13:53:48.384Z,26.09
2023-05-22T13:56:16.947Z,26.20
2023-05-22T13:58:45.472Z,26.56
2023-05-22T14:01:14.144Z,26.82
2023-05-22T14:03:42.660Z,27.08
2023-05-22T14:06:12.378Z,26.56
2023-05-22T14:08:40.768Z,26.28
2023-05-22T14:11:09.299Z,25.81
2023-05-22T14:13:37.847Z,26.23
2023-05-22T14:16:06.979Z,25.98
2023-05-22T14:18:35.330Z,26.23
2023-05-22T14:21:04.984Z,26.10
2023-05-22T14:23:36.951Z,26.20
2023-05-22T14:26:06.004Z,26.27
2023-05-22T14:28:34.177Z,26.17
2023-05-22T14:31:02.657Z,26.25
2023-05-22T14:33:32.426Z,26.23
2023-05-22T14:36:00.855Z,26.18
2023-05-22T14:38:33.888Z,26.09
2023-05-22T14:41:04.330Z,26.40
2023-05-22T14:43:33.598Z,26.58
2023-05-22T14:46:01.868Z,26.57
2023-05-22T14:48:30.303Z,26.85
2023-05-22T14:50:59.007Z,27.09
2023-05-22T14:53:27.662Z,27.26
2023-05-22T14:55:56.013Z,27.12
2023-05-22T14:58:26.631Z,27.06
2023-05-22T15:00:54.922Z,26.50
2023-05-22T15:03:24.006Z,26.45
2023-05-22T15:05:52.733Z,26.20
2023-05-22T15:08:22.182Z,26.12
2023-05-22T15:10:51.076Z,26.11
2023-05-22T15:13:22.416Z,26.10
2023-05-22T15:15:52.486Z,26.06
2023-05-22T15:18:21.231Z,25.84
2023-05-22T15:20:49.895Z,25.85
2023-05-22T15:23:18.912Z,25.47
2023-05-22T15:25:48.230Z,25.52
2023-05-22T15:28:16.594Z,25.69
2023-05-22T15:30:44.930Z,26.00
2023-05-22T15:33:15.564Z,25.95
2023-05-22T15:35:47.076Z,25.74
2023-05-22T15:38:16.647Z,25.39
2023-05-22T15:40:46.106Z,25.35
2023-05-22T15:43:14.525Z,25.05
2023-05-22T15:45:43.315Z,24.97
2023-05-22T15:48:12.737Z,24.85
2023-05-22T15:50:42.654Z,24.69
2023-05-22T15:53:10.995Z,24.59
2023-05-22T15:55:39.474Z,24.55
2023-05-22T15:58:08.108Z,24.57
2023-05-22T16:00:41.295Z,24.54
2023-05-22T16:03:10.348Z,24.48
2023-05-22T16:05:39.611Z,25.27
2023-05-22T16:08:11.256Z,26.59
2023-05-22T16:10:41.769Z,28.11
2023-05-22T16:13:10.945Z,29.29
2023-05-22T16:15:40.433Z,30.56
2023-05-22T16:18:09.976Z,30.59
2023-05-22T16:20:38.815Z,30.89
2023-05-22T16:23:08.754Z,31.36
2023-05-22T16:25:37.163Z,32.14
2023-05-22T16:28:06.386Z,32.11
2023-05-22T16:30:34.580Z,31.48
2023-05-22T16:33:03.211Z,30.29
2023-05-22T16:35:32.060Z,29.16
2023-05-22T16:38:00.477Z,28.42
2023-05-22T16:40:30.151Z,27.81
2023-05-22T16:42:58.893Z,27.37
2023-05-22T16:45:27.359Z,26.99
2023-05-22T16:47:57.193Z,26.46
2023-05-22T16:50:26.159Z,26.10
2023-05-22T16:52:54.730Z,26.05
2023-05-22T16:55:23.525Z,25.89
2023-05-22T16:57:53.643Z,25.77
2023-05-22T17:00:22.797Z,25.64
2023-05-22T17:02:52.582Z,25.53
2023-05-22T17:05:21.660Z,25.37
2023-05-22T17:07:50.238Z,25.22
2023-05-22T17:10:18.774Z,25.04
2023-05-22T17:12:47.273Z,24.97
2023-05-22T17:15:17.146Z,24.87
2023-05-22T17:17:45.831Z,24.90
2023-05-22T17:20:14.224Z,24.85
2023-05-22T17:22:44.173Z,24.73
2023-05-22T17:25:12.524Z,24.74
2023-05-22T17:27:40.717Z,24.63
2023-05-22T17:30:10.128Z,24.55
2023-05-22T17:32:39.810Z,24.48
2023-05-22T17:35:10.046Z,24.36
2023-05-22T17:37:38.634Z,24.38
2023-05-22T17:40:08.157Z,24.45
2023-05-22T17:42:36.692Z,24.41
2023-05-22T17:45:05.248Z,24.39
2023-05-22T17:47:33.476Z,24.32
2023-05-22T17:50:03.288Z,24.25
2023-05-22T17:52:31.624Z,24.06
2023-05-22T17:54:59.894Z,24.09
2023-05-22T17:57:28.013Z,24.01
2023-05-22T17:59:56.456Z,24.06
2023-05-22T18:02:26.623Z,24.36
2023-05-22T18:04:55.086Z,24.33
2023-05-22T18:07:24.745Z,24.33
2023-05-22T18:09:53.165Z,24.03
2023-05-22T18:12:31.256Z,23.94
2023-05-22T18:15:00.557Z,23.66
2023-05-22T18:17:29.031Z,23.54
2023-05-22T18:19:57.298Z,23.33
2023-05-22T18:22:27.062Z,23.04
2023-05-22T18:24:55.254Z,23.06
2023-05-22T18:27:23.931Z,22.96
2023-05-22T18:29:52.623Z,22.99
2023-05-22T18:32:21.116Z,22.97
2023-05-22T18:34:49.883Z,22.96
2023-05-22T18:37:19.057Z,22.88
2023-05-22T18:39:48.942Z,22.92
2023-05-22T18:42:17.924Z,22.94
2023-05-22T18:44:48.706Z,22.60
2023-05-22T18:47:17.444Z,22.51
2023-05-22T18:49:46.251Z,22.44
2023-05-22T18:52:14.577Z,22.26
2023-05-22T18:54:43.110Z,22.17
2023-05-22T18:57:14.302Z,22.10
2023-05-22T18:59:43.568Z,21.94
2023-05-22T19:02:11.909Z,21.85
2023-05-22T19:04:40.451Z,21.73
2023-05-22T19:07:09.250Z,21.64
2023-05-22T19:09:37.412Z,21.59
2023-05-22T19:12:06.343Z,21.52
2023-05-22T19:14:36.065Z,21.50
2023-05-22T19:17:04.516Z,21.45
2023-05-22T19:19:32.925Z,21.33
2023-05-22T19:22:01.604Z,21.23
2023-05-22T19:24:29.909Z,21.11
2023-05-22T19:26:58.516Z,21.07
2023-05-22T19:29:26.635Z,21.09
2023-05-22T19:31:56.609Z,21.85
2023-05-22T19:34:24.832Z,21.87
2023-05-22T19:36:57.992Z,22.08
2023-05-22T19:39:26.848Z,22.07
2023-05-22T19:41:55.430Z,22.17
2023-05-22T19:44:23.882Z,22.01
2023-05-22T19:46:52.488Z,22.01
2023-05-22T19:49:22.454Z,21.90
2023-05-22T19:51:50.704Z,22.24
2023-05-22T19:54:19.188Z,21.91
2023-05-22T19:56:47.324Z,22.11
2023-05-22T19:59:15.848Z,21.99
2023-05-22T20:01:44.368Z,22.04
2023-05-22T20:04:12.951Z,22.10
2023-05-22T20:06:45.355Z,22.05
2023-05-22T20:09:13.498Z,21.90
2023-05-22T20:11:41.590Z,21.94
2023-05-22T20:14:09.786Z,21.88
2023-05-22T20:16:38.400Z,21.59
2023-05-22T20:19:06.671Z,21.45
2023-05-22T20:21:34.933Z,21.29
2023-05-22T20:24:06.209Z,21.19
2023-05-22T20:26:34.404Z,21.21
2023-05-22T20:29:02.620Z,21.21
2023-05-22T20:31:30.855Z,20.97
2023-05-22T20:33:59.322Z,20.86
2023-05-22T20:36:27.542Z,20.79
2023-05-22T20:38:55.782Z,20.67
2023-05-22T20:41:25.677Z,20.50
2023-05-22T20:43:54.468Z,20.48
2023-05-22T20:46:24.418Z,20.51
2023-05-22T20:48:52.744Z,20.32
2023-05-22T20:51:21.776Z,20.32
2023-05-22T20:53:51.502Z,20.21
2023-05-22T20:56:19.675Z,20.04
2023-05-22T20:58:49.585Z,19.97
2023-05-22T21:01:17.785Z,19.98
2023-05-22T21:03:45.928Z,19.85
2023-05-22T21:06:14.229Z,19.72
2023-05-22T21:08:42.462Z,19.59
2023-05-22T21:11:10.592Z,19.50
2023-05-22T21:13:38.939Z,19.42
2023-05-22T21:16:08.777Z,19.61
2023-05-22T21:18:37.062Z,19.32
2023-05-22T21:21:05.255Z,19.51
2023-05-22T21:23:33.331Z,19.54
2023-05-22T21:26:01.794Z,19.29
2023-05-22T21:28:30.411Z,19.38
2023-05-22T21:30:58.466Z,19.32
2023-05-22T21:33:28.007Z,19.26
2023-05-22T21:35:56.390Z,19.34
2023-05-22T21:38:24.514Z,19.33
2023-05-22T21:40:52.913Z,19.31
2023-05-22T21:43:21.059Z,19.26
2023-05-22T21:45:49.197Z,19.42
2023-05-22T21:48:17.478Z,19.35
2023-05-22T21:50:47.251Z,19.39
2023-05-22T21:53:15.453Z,19.25
2023-05-22T21:55:43.619Z,19.07
2023-05-22T21:58:12.527Z,19.08
2023-05-22T22:00:41.093Z,19.03
2023-05-22T22:03:09.527Z,18.92
2023-05-22T22:05:37.999Z,18.74
2023-05-22T22:08:07.733Z,18.74
2023-05-22T22:10:36.406Z,18.66
2023-05-22T22:13:04.573Z,18.52
2023-05-22T22:15:33.922Z,18.56
2023-05-22T22:18:03.325Z,18.45
2023-05-22T22:23:09.300Z,18.38
2023-05-22T22:25:39.348Z,18.38
2023-05-22T22:28:08.514Z,18.38
2023-05-22T22:30:36.793Z,18.23
2023-05-22T22:33:05.120Z,18.24
2023-05-22T22:35:33.621Z,18.21
2023-05-22T22:38:01.787Z,18.26
2023-05-22T22:40:31.217Z,18.29
2023-05-22T22:42:59.300Z,18.24
2023-05-22T22:45:27.428Z,18.14
2023-05-22T22:47:56.662Z,18.17
2023-05-22T22:50:25.522Z,18.09
2023-05-22T22:52:53.919Z,18.01
2023-05-22T22:55:22.558Z,17.93
2023-05-22T22:57:52.271Z,17.85
2023-05-22T23:00:20.678Z,17.76
2023-05-22T23:02:48.840Z,17.70
2023-05-22T23:05:20.176Z,17.63
2023-05-22T23:07:49.203Z,17.59
2023-05-22T23:10:17.763Z,17.52
2023-05-22T23:12:45.833Z,17.56
2023-05-22T23:15:15.983Z,17.48
2023-05-22T23:17:44.218Z,17.42
2023-05-22T23:20:13.460Z,17.34
2023-05-22T23:22:41.664Z,17.28
2023-05-22T23:25:10.373Z,17.30
2023-05-22T23:27:39.378Z,17.32
2023-05-22T23:30:09.475Z,17.33
2023-05-22T23:32:39.038Z,17.37
2023-05-22T23:35:09.723Z,17.35
2023-05-22T23:37:38.176Z,17.39
2023-05-22T23:43:53.940Z,17.52
2023-05-22T23:46:24.643Z,17.42
2023-05-22T23:48:54.596Z,17.36
2023-05-22T23:51:22.922Z,17.28
2023-05-22T23:53:51.164Z,17.23
2023-05-22T23:56:19.329Z,17.25
2023-05-22T23:58:47.589Z,17.09
